Time;durP1;ratioP1;P1;durP2;ratioP2;P2;SDS_P1;SDS_P2;PMS_P1;PMS_P2;Temp;Humidity;BMP_temperature;BMP_pressure;BME280_temperature;BME280_humidity;BME280_pressure;Samples;Min_cycle;Max_cycle;Signal;HPM_P1;HPM_P2
2021/01/18 00:01:45;;;;;;;51.67;31.97;;;1.40;99.90;;;;;;4989467;28;20218;-81
2021/01/18 00:04:12;;;;;;;49.30;29.43;;;1.40;99.90;;;;;;4987478;28;20221;-81
2021/01/18 00:06:40;;;;;;;51.47;32.57;;;1.40;99.90;;;;;;4989029;28;20233;-81
2021/01/18 00:09:08;;;;;;;52.73;32.33;;;1.50;99.90;;;;;;4973964;28;20659;-81
2021/01/18 00:11:35;;;;;;;44.43;28.43;;;1.50;99.90;;;;;;4988493;28;20221;-81
2021/01/18 00:14:05;;;;;;;51.43;32.27;;;1.50;99.90;;;;;;4989424;28;20217;-81
2021/01/18 00:16:32;;;;;;;46.60;30.67;;;1.60;99.90;;;;;;4972882;28;20270;-81
2021/01/18 00:19:00;;;;;;;41.67;27.03;;;1.60;99.90;;;;;;4988778;28;20222;-80
2021/01/18 00:21:27;;;;;;;43.77;29.10;;;1.60;99.90;;;;;;4973757;28;20222;-81
2021/01/18 00:23:54;;;;;;;43.00;27.53;;;1.70;99.90;;;;;;4988081;28;20202;-81
2021/01/18 00:26:21;;;;;;;40.33;27.67;;;1.80;99.90;;;;;;4989124;28;20232;-81
2021/01/18 00:28:49;;;;;;;41.87;28.23;;;1.80;99.90;;;;;;4971685;28;20245;-81
2021/01/18 00:31:16;;;;;;;43.80;28.07;;;1.80;99.90;;;;;;4988470;28;20293;-81
2021/01/18 00:33:44;;;;;;;48.17;28.50;;;1.80;99.90;;;;;;4990131;28;20282;-81
2021/01/18 00:36:11;;;;;;;40.17;26.83;;;1.80;99.90;;;;;;4988926;28;20237;-81
2021/01/18 00:38:38;;;;;;;38.47;26.40;;;1.80;99.90;;;;;;4986975;28;20221;-81
2021/01/18 00:41:05;;;;;;;40.60;26.83;;;1.90;99.90;;;;;;4983565;28;20232;-81
2021/01/18 00:43:32;;;;;;;38.10;25.13;;;1.90;99.90;;;;;;4995416;28;20697;-81
2021/01/18 00:45:59;;;;;;;34.53;25.03;;;2.00;99.90;;;;;;4976397;28;20237;-81
2021/01/18 00:48:26;;;;;;;35.53;22.73;;;2.10;99.90;;;;;;4991558;28;20278;-80
2021/01/18 00:50:54;;;;;;;34.63;22.23;;;2.20;99.90;;;;;;4988836;28;20225;-81
2021/01/18 00:53:21;;;;;;;29.07;19.47;;;2.30;99.90;;;;;;4972802;28;20225;-79
2021/01/18 00:55:48;;;;;;;31.37;20.50;;;2.30;99.90;;;;;;4990135;28;20240;-81
2021/01/18 00:58:32;;;;;;;33.37;18.27;;;2.40;99.90;;;;;;4989319;28;20229;-81
2021/01/18 01:01:20;;;;;;;26.33;15.57;;;2.50;99.90;;;;;;4988632;28;20239;-81
2021/01/18 01:03:50;;;;;;;24.13;15.70;;;2.60;99.90;;;;;;4990082;28;20245;-81
2021/01/18 01:06:18;;;;;;;27.33;16.70;;;2.70;99.90;;;;;;4973386;28;20291;-81
2021/01/18 01:08:45;;;;;;;20.60;15.60;;;2.70;99.90;;;;;;4990250;28;20272;-81
2021/01/18 01:11:12;;;;;;;27.87;16.53;;;2.80;99.90;;;;;;4989690;28;20309;-81
2021/01/18 01:13:39;;;;;;;36.07;18.30;;;2.90;99.90;;;;;;4974736;28;20221;-81
2021/01/18 01:16:07;;;;;;;27.43;16.07;;;3.00;99.90;;;;;;4989946;28;20226;-81
2021/01/18 01:18:34;;;;;;;43.97;19.37;;;3.00;99.90;;;;;;4989991;28;20296;-81
2021/01/18 01:21:01;;;;;;;29.37;17.30;;;3.10;99.90;;;;;;4974581;28;20241;-81
2021/01/18 01:23:28;;;;;;;31.87;17.50;;;3.20;99.90;;;;;;4990920;28;20224;-81
2021/01/18 01:25:55;;;;;;;45.67;22.07;;;3.20;99.90;;;;;;4995533;28;20217;-81
2021/01/18 01:28:42;;;;;;;38.63;19.03;;;3.30;99.90;;;;;;4995439;28;20289;-81
2021/01/18 01:31:09;;;;;;;37.67;20.83;;;3.30;99.90;;;;;;4993193;28;20587;-81
2021/01/18 01:33:37;;;;;;;44.20;24.30;;;3.40;99.90;;;;;;4990992;28;20229;-81
2021/01/18 01:36:06;;;;;;;39.30;21.77;;;3.50;99.90;;;;;;4989247;28;20229;-81
2021/01/18 01:38:34;;;;;;;42.83;21.97;;;3.50;99.90;;;;;;4989082;28;20225;-81
2021/01/18 01:41:01;;;;;;;46.30;23.23;;;3.50;99.90;;;;;;4989822;28;20236;-81
2021/01/18 01:43:28;;;;;;;47.33;21.80;;;3.50;99.90;;;;;;4971883;28;20218;-81
2021/01/18 01:45:55;;;;;;;56.67;26.23;;;3.50;99.90;;;;;;4987473;28;20705;-80
2021/01/18 01:48:25;;;;;;;42.60;24.00;;;3.50;99.90;;;;;;4988446;28;20234;-81
2021/01/18 01:50:53;;;;;;;64.13;26.67;;;3.50;99.90;;;;;;4986735;28;20218;-81
2021/01/18 01:53:26;;;;;;;58.67;26.87;;;3.60;99.90;;;;;;4991469;28;20352;-79
2021/01/18 01:55:55;;;;;;;66.30;27.97;;;3.40;99.90;;;;;;4988328;28;20336;-80
2021/01/18 01:58:25;;;;;;;53.00;26.97;;;3.40;99.90;;;;;;5000716;28;20221;-81
2021/01/18 02:00:59;;;;;;;54.80;24.37;;;3.50;99.90;;;;;;4973628;28;21643;-81
2021/01/18 02:03:41;;;;;;;64.87;29.27;;;3.50;99.90;;;;;;4988876;28;20217;-81
2021/01/18 02:06:10;;;;;;;47.40;25.17;;;3.40;99.90;;;;;;4988352;28;20236;-81
2021/01/18 02:08:38;;;;;;;47.83;22.80;;;3.50;99.90;;;;;;4971684;28;20222;-81
2021/01/18 02:11:08;;;;;;;65.07;25.53;;;3.50;99.90;;;;;;4988267;28;20218;-80
2021/01/18 02:13:52;;;;;;;47.67;24.23;;;3.60;99.90;;;;;;4989702;28;20217;-81
2021/01/18 02:16:28;;;;;;;48.43;24.97;;;3.60;99.90;;;;;;4979590;28;20234;-81
2021/01/18 02:19:23;;;;;;;51.90;23.23;;;3.50;99.90;;;;;;4989327;28;20216;-80
2021/01/18 02:22:28;;;;;;;58.60;23.63;;;3.50;99.90;;;;;;4974552;28;20225;-81
2021/01/18 02:25:17;;;;;;;43.33;21.60;;;3.50;99.90;;;;;;4958757;28;20222;-82
2021/01/18 02:28:26;;;;;;;43.63;20.53;;;3.60;99.90;;;;;;4979180;28;20726;-80
2021/01/18 09:05:58;;;;;;;15.20;9.27;;;4.00;99.90;;;;;;4985242;28;20225;-83
2021/01/18 09:08:29;;;;;;;20.23;9.60;;;4.20;99.90;;;;;;4969659;28;20225;-82
2021/01/18 09:10:58;;;;;;;24.60;11.57;;;4.30;99.90;;;;;;4966558;28;20303;-83
2021/01/18 09:13:27;;;;;;;16.63;11.73;;;4.40;99.90;;;;;;4982082;28;20285;-82
2021/01/18 09:15:55;;;;;;;16.13;11.27;;;4.50;99.90;;;;;;4964841;28;20433;-82
2021/01/18 09:18:23;;;;;;;21.97;11.53;;;4.70;99.90;;;;;;4981182;28;20233;-82
2021/01/18 09:20:50;;;;;;;27.03;13.07;;;4.70;99.90;;;;;;4981394;28;20260;-82
2021/01/18 09:23:18;;;;;;;17.63;11.00;;;4.80;99.90;;;;;;4968293;28;20285;-83
2021/01/18 09:25:46;;;;;;;14.97;11.00;;;4.80;99.90;;;;;;4983310;28;20238;-83
2021/01/18 09:28:14;;;;;;;19.70;12.67;;;4.70;99.90;;;;;;4984393;28;20616;-83
2021/01/18 09:30:44;;;;;;;16.87;12.77;;;4.70;99.90;;;;;;4982973;28;20236;-83
2021/01/18 09:33:12;;;;;;;18.07;11.73;;;4.70;99.90;;;;;;4967290;28;20233;-83
2021/01/18 09:35:41;;;;;;;19.20;12.80;;;4.60;99.90;;;;;;4985264;28;20301;-82
2021/01/18 09:38:10;;;;;;;18.73;13.37;;;4.60;99.90;;;;;;4984827;28;20617;-82
2021/01/18 09:40:41;;;;;;;21.83;13.45;;;4.60;99.90;;;;;;4967534;28;20205;-81
2021/01/18 09:43:10;;;;;;;21.17;13.47;;;4.50;99.90;;;;;;4983428;28;20222;-81
2021/01/18 09:45:38;;;;;;;18.13;14.23;;;4.40;99.90;;;;;;4967958;28;20241;-82
2021/01/18 09:48:07;;;;;;;21.70;14.23;;;4.60;99.90;;;;;;4982517;28;20255;-81
2021/01/18 09:50:34;;;;;;;21.83;11.77;;;4.60;99.90;;;;;;4987142;28;20221;-82
2021/01/18 09:53:05;;;;;;;22.93;12.87;;;4.60;99.90;;;;;;4987172;28;20229;-83
2021/01/18 09:55:34;;;;;;;18.23;12.53;;;4.70;99.90;;;;;;4986704;28;20341;-82
2021/01/18 09:58:07;;;;;;;25.97;14.37;;;4.70;99.90;;;;;;4983941;28;20222;-82
2021/01/18 10:00:37;;;;;;;22.30;13.73;;;4.70;99.90;;;;;;4985639;28;20225;-82
2021/01/18 10:03:05;;;;;;;19.77;13.27;;;4.80;99.90;;;;;;4983650;28;20281;-82
2021/01/18 10:05:38;;;;;;;21.70;13.30;;;4.70;99.90;;;;;;4982864;28;20771;-82
2021/01/18 10:08:11;;;;;;;23.87;12.80;;;4.70;99.90;;;;;;4983395;28;20318;-82
2021/01/18 10:10:43;;;;;;;18.20;13.53;;;4.80;99.90;;;;;;4983424;28;20237;-82
2021/01/18 10:13:17;;;;;;;28.77;14.00;;;4.80;99.90;;;;;;4968563;28;20224;-82
2021/01/18 10:15:45;;;;;;;20.87;15.00;;;4.70;99.90;;;;;;4987611;28;20269;-83
2021/01/18 10:18:29;;;;;;;20.03;14.10;;;4.80;99.90;;;;;;4969964;28;20217;-82
2021/01/18 10:20:56;;;;;;;19.90;13.57;;;4.90;99.90;;;;;;4985803;28;20225;-82
2021/01/18 10:23:23;;;;;;;21.30;13.27;;;4.80;99.90;;;;;;4967797;28;20208;-82
2021/01/18 10:25:50;;;;;;;16.50;13.90;;;5.00;99.90;;;;;;4967247;28;20578;-82
2021/01/18 10:28:19;;;;;;;19.67;14.53;;;4.90;99.90;;;;;;4982170;28;20298;-80
2021/01/18 10:30:47;;;;;;;29.80;17.07;;;5.00;99.90;;;;;;4965304;28;20729;-82
2021/01/18 10:33:18;;;;;;;24.87;15.63;;;4.90;99.90;;;;;;4981528;28;20221;-82
2021/01/18 10:35:46;;;;;;;25.63;16.60;;;4.90;99.90;;;;;;4960753;28;20240;-83
2021/01/18 10:38:18;;;;;;;22.33;15.57;;;4.80;99.90;;;;;;4975132;28;20225;-82
2021/01/18 10:41:01;;;;;;;24.60;15.63;;;4.80;99.90;;;;;;4975515;28;20217;-83
2021/01/18 10:43:30;;;;;;;43.60;20.03;;;4.80;99.90;;;;;;4980518;28;20225;-82
2021/01/18 10:45:57;;;;;;;29.10;17.83;;;4.80;99.90;;;;;;4981926;28;20249;-83
2021/01/18 10:48:29;;;;;;;25.63;16.97;;;4.70;99.90;;;;;;4984601;28;20230;-83
2021/01/18 10:50:57;;;;;;;27.03;18.67;;;4.70;99.90;;;;;;4978518;28;20702;-82
2021/01/18 10:53:29;;;;;;;28.97;17.33;;;4.80;99.90;;;;;;4951722;29;20222;-82
2021/01/18 10:56:13;;;;;;;28.03;18.80;;;4.80;99.90;;;;;;4968797;28;20286;-82
2021/01/18 10:58:41;;;;;;;28.83;19.90;;;4.80;99.90;;;;;;4966437;28;20234;-81
2021/01/18 11:01:10;;;;;;;29.33;20.53;;;4.80;99.90;;;;;;4949920;29;20240;-82
2021/01/18 11:03:38;;;;;;;29.90;19.02;;;4.90;99.90;;;;;;4949833;29;20245;-83
2021/01/18 11:06:11;;;;;;;30.43;17.97;;;4.90;99.90;;;;;;4965186;29;20601;-82
2021/01/18 11:08:40;;;;;;;24.50;20.17;;;4.90;99.90;;;;;;4967539;28;20230;-83
2021/01/18 11:11:18;;;;;;;27.83;19.37;;;5.00;99.90;;;;;;4950885;29;20249;-83
2021/01/18 11:13:46;;;;;;;31.00;20.93;;;5.10;99.90;;;;;;4959720;29;20286;-84
2021/01/18 11:16:14;;;;;;;35.50;21.67;;;5.00;99.90;;;;;;4980097;28;20239;-83
2021/01/18 11:18:41;;;;;;;39.10;23.87;;;5.10;99.90;;;;;;4973295;28;20222;-82
2021/01/18 11:21:08;;;;;;;35.60;22.70;;;5.10;99.90;;;;;;4962292;28;20890;-83
2021/01/18 11:23:35;;;;;;;29.83;21.53;;;5.00;99.90;;;;;;4963785;28;20230;-83
2021/01/18 11:26:03;;;;;;;35.07;21.47;;;5.20;99.90;;;;;;4955988;29;20241;-84
2021/01/18 11:28:30;;;;;;;37.60;22.20;;;5.20;99.90;;;;;;4974801;29;20235;-83
2021/01/18 11:31:00;;;;;;;36.53;23.80;;;5.20;99.90;;;;;;4956648;29;20214;-83
2021/01/18 11:33:27;;;;;;;39.03;22.93;;;5.20;99.90;;;;;;4961292;29;20231;-83
2021/01/18 11:35:54;;;;;;;33.57;22.40;;;5.20;99.90;;;;;;4968420;28;20290;-83
2021/01/18 11:38:22;;;;;;;39.37;22.10;;;5.20;99.90;;;;;;4968573;28;20225;-81
2021/01/18 11:40:49;;;;;;;35.40;23.03;;;5.30;99.90;;;;;;4967576;29;20234;-83
2021/01/18 11:43:15;;;;;;;34.07;23.40;;;5.20;99.90;;;;;;4965835;29;20226;-83
2021/01/18 11:45:42;;;;;;;30.50;22.73;;;5.30;99.90;;;;;;4964776;28;20661;-83
2021/01/18 11:48:11;;;;;;;37.10;24.37;;;5.30;99.90;;;;;;4964384;28;20693;-83
2021/01/18 11:50:57;;;;;;;35.13;25.30;;;5.30;99.90;;;;;;4964293;28;20225;-83
2021/01/18 11:53:24;;;;;;;38.77;25.33;;;5.20;99.90;;;;;;4947818;29;20194;-83
2021/01/18 11:55:51;;;;;;;37.57;24.23;;;5.20;99.90;;;;;;4964085;28;20384;-83
2021/01/18 11:58:19;;;;;;;44.40;24.50;;;5.30;99.90;;;;;;4963869;29;20249;-84
2021/01/18 12:00:46;;;;;;;43.80;27.47;;;5.30;99.90;;;;;;4990344;28;20217;-83
2021/01/18 12:03:13;;;;;;;45.53;24.63;;;5.30;99.90;;;;;;5001716;28;20217;-82
2021/01/18 12:05:40;;;;;;;42.87;24.90;;;5.20;99.90;;;;;;4985049;28;20252;-83
2021/01/18 12:08:07;;;;;;;32.23;24.53;;;5.20;99.90;;;;;;5001087;28;20233;-83
2021/01/18 12:10:35;;;;;;;41.50;25.73;;;5.30;99.90;;;;;;4985372;28;20225;-83
2021/01/18 12:13:03;;;;;;;41.53;24.93;;;5.50;99.90;;;;;;5003871;28;20233;-83
2021/01/18 12:15:30;;;;;;;36.27;23.50;;;5.40;99.90;;;;;;5003967;28;20299;-83
2021/01/18 12:17:57;;;;;;;32.27;20.93;;;5.40;99.90;;;;;;4987995;28;20224;-84
2021/01/18 12:20:28;;;;;;;39.27;21.47;;;5.20;99.90;;;;;;4966506;28;20197;-84
2021/01/18 12:22:58;;;;;;;38.90;22.67;;;5.20;99.90;;;;;;4967615;28;20222;-83
2021/01/18 12:25:27;;;;;;;40.80;22.40;;;5.30;99.90;;;;;;4985247;28;20229;-84
2021/01/18 12:27:56;;;;;;;29.73;21.43;;;5.30;99.90;;;;;;4968280;28;20230;-83
2021/01/18 12:30:24;;;;;;;29.20;21.00;;;5.20;99.90;;;;;;4984694;28;20308;-83
2021/01/18 12:32:54;;;;;;;32.03;20.47;;;5.30;99.90;;;;;;4983584;28;20778;-83
2021/01/18 12:35:21;;;;;;;39.67;21.40;;;5.30;99.90;;;;;;4970337;28;20761;-83
2021/01/18 12:37:49;;;;;;;32.72;21.55;;;5.30;99.90;;;;;;4972803;28;21290;-85
2021/01/18 12:40:17;;;;;;;24.10;19.13;;;5.30;99.90;;;;;;4983925;28;20281;-83
2021/01/18 12:42:45;;;;;;;24.80;18.77;;;5.40;99.90;;;;;;4983255;28;20222;-83
2021/01/18 12:45:14;;;;;;;32.93;19.10;;;5.40;99.90;;;;;;4964273;28;20194;-83
2021/01/18 12:47:41;;;;;;;26.63;17.65;;;5.40;99.90;;;;;;4974596;28;20249;-84
2021/01/18 12:50:10;;;;;;;25.92;16.15;;;5.40;99.90;;;;;;4982405;28;20220;-83
2021/01/18 12:52:41;;;;;;;29.87;18.43;;;5.30;99.90;;;;;;4964230;28;20281;-83
2021/01/18 12:55:21;;;;;;;31.20;20.25;;;5.30;99.90;;;;;;4982514;28;20222;-82
2021/01/18 12:57:50;;;;;;;24.83;19.10;;;5.40;99.90;;;;;;4957980;28;20225;-75
2021/01/18 13:00:18;;;;;;;24.50;17.60;;;5.60;99.90;;;;;;4979921;28;20218;-74
2021/01/18 13:02:45;;;;;;;32.37;19.73;;;5.50;99.90;;;;;;4977172;28;20605;-75
2021/01/18 13:05:13;;;;;;;39.13;19.52;;;5.50;99.90;;;;;;4972939;28;20229;-73
2021/01/18 13:07:58;;;;;;;27.17;16.53;;;5.50;99.90;;;;;;4973293;28;20236;-78
2021/01/18 13:10:28;;;;;;;30.17;19.30;;;5.50;99.90;;;;;;4985789;28;20210;-84
2021/01/18 13:12:58;;;;;;;25.43;19.53;;;5.40;99.90;;;;;;4984783;28;20221;-85
2021/01/18 13:15:29;;;;;;;26.70;17.10;;;5.40;99.90;;;;;;4987685;28;20210;-84
2021/01/18 13:17:57;;;;;;;33.83;20.70;;;5.40;99.90;;;;;;4988429;28;20202;-84
2021/01/18 13:20:30;;;;;;;33.03;18.30;;;5.40;99.90;;;;;;4988389;28;20222;-83
2021/01/18 13:23:14;;;;;;;25.90;17.67;;;5.40;99.90;;;;;;4973940;28;20214;-83
2021/01/18 13:25:58;;;;;;;36.27;20.37;;;5.40;99.90;;;;;;4985655;28;20210;-85
2021/01/18 13:28:40;;;;;;;30.53;18.00;;;5.30;99.90;;;;;;4966299;28;20230;-86
2021/01/18 13:31:18;;;;;;;26.83;17.57;;;5.30;99.90;;;;;;4979854;28;20633;-86
2021/01/18 13:33:52;;;;;;;25.87;18.10;;;5.40;99.90;;;;;;4983513;28;20218;-85
2021/01/18 13:36:26;;;;;;;27.90;17.83;;;5.20;99.90;;;;;;4969425;28;20222;-85
2021/01/18 13:38:58;;;;;;;31.13;19.80;;;5.40;99.90;;;;;;4963719;28;20270;-85
2021/01/18 13:41:29;;;;;;;27.75;19.27;;;5.30;99.90;;;;;;4959803;29;20218;-84
2021/01/18 13:44:00;;;;;;;29.63;17.13;;;5.50;99.90;;;;;;4964542;28;20305;-84
2021/01/18 13:46:47;;;;;;;32.00;18.13;;;5.50;99.90;;;;;;4980499;28;20245;-84
2021/01/18 13:49:21;;;;;;;22.75;16.90;;;5.60;99.90;;;;;;4979062;28;20277;-85
2021/01/18 13:52:07;;;;;;;27.67;17.87;;;5.50;99.90;;;;;;4980133;28;20221;-84
2021/01/18 13:54:53;;;;;;;28.73;18.17;;;5.50;99.90;;;;;;4968234;28;20214;-84
2021/01/18 13:57:52;;;;;;;23.90;17.13;;;5.50;99.90;;;;;;4962675;28;20222;-84
2021/01/18 14:00:23;;;;;;;30.23;17.50;;;5.50;99.90;;;;;;4963032;28;20557;-84
2021/01/18 14:02:53;;;;;;;28.43;17.60;;;5.50;99.90;;;;;;4962336;28;20227;-84
2021/01/18 14:05:21;;;;;;;22.77;17.87;;;5.40;99.90;;;;;;4943842;29;20215;-85
2021/01/18 14:08:02;;;;;;;24.17;15.50;;;5.60;99.90;;;;;;4966503;28;20697;-84
2021/01/18 14:10:33;;;;;;;27.43;16.63;;;5.30;99.90;;;;;;4977672;28;20209;-84
2021/01/18 14:13:09;;;;;;;29.53;17.63;;;5.50;99.90;;;;;;4972638;28;20222;-84
2021/01/18 14:15:51;;;;;;;21.73;15.50;;;5.40;99.90;;;;;;4982280;28;20229;-84
2021/01/18 14:18:41;;;;;;;27.17;16.57;;;5.50;99.90;;;;;;4966416;28;20328;-85
2021/01/18 14:21:21;;;;;;;26.40;16.87;;;5.50;99.90;;;;;;4985049;28;20222;-84
2021/01/18 14:24:11;;;;;;;27.00;16.13;;;5.50;99.90;;;;;;4983021;28;20220;-84
2021/01/18 14:27:15;;;;;;;20.38;15.45;;;5.30;99.90;;;;;;4967686;28;20253;-84
2021/01/18 14:30:06;;;;;;;30.60;17.13;;;5.50;99.90;;;;;;4961673;29;20234;-85
2021/01/18 14:32:41;;;;;;;20.03;16.37;;;5.40;99.90;;;;;;4962846;29;20301;-85
2021/01/18 14:35:28;;;;;;;22.87;16.73;;;5.40;99.90;;;;;;4964489;28;20226;-84
2021/01/18 14:37:55;;;;;;;24.27;16.87;;;5.30;99.90;;;;;;4963150;29;20318;-84
2021/01/18 14:40:25;;;;;;;28.33;16.40;;;5.30;99.90;;;;;;4959317;29;20237;-85
2021/01/18 14:42:52;;;;;;;25.53;16.53;;;5.40;99.90;;;;;;4945120;29;20224;-85
2021/01/18 14:45:26;;;;;;;22.23;16.93;;;5.30;99.90;;;;;;4959796;29;20249;-85
2021/01/18 14:48:07;;;;;;;21.03;16.03;;;5.30;99.90;;;;;;4957961;29;20214;-84
2021/01/18 14:50:34;;;;;;;30.80;18.57;;;5.40;99.90;;;;;;4942125;29;20207;-84
2021/01/18 14:53:01;;;;;;;27.25;16.58;;;5.30;99.90;;;;;;4941320;29;20246;-84
2021/01/18 14:55:30;;;;;;;22.05;17.45;;;5.30;99.90;;;;;;4957891;29;20234;-83
2021/01/18 14:57:58;;;;;;;29.23;16.63;;;5.30;99.90;;;;;;4961432;29;20207;-84
2021/01/18 15:00:28;;;;;;;36.00;17.87;;;5.30;99.90;;;;;;4957134;29;21540;-84
2021/01/18 15:02:54;;;;;;;23.07;16.57;;;5.30;99.90;;;;;;4959450;29;20218;-83
2021/01/18 15:05:21;;;;;;;28.80;15.77;;;5.30;99.90;;;;;;4961044;28;20253;-84
2021/01/18 15:07:54;;;;;;;21.50;16.63;;;5.20;99.90;;;;;;4942930;28;20305;-85
2021/01/18 15:10:21;;;;;;;20.20;16.37;;;5.10;99.90;;;;;;4963079;28;20217;-84
2021/01/18 15:12:47;;;;;;;22.33;16.37;;;5.10;99.90;;;;;;4968551;29;20250;-83
2021/01/18 15:15:16;;;;;;;24.13;17.50;;;5.10;99.90;;;;;;4970154;29;20279;-84
2021/01/18 15:17:44;;;;;;;21.30;17.67;;;5.10;99.90;;;;;;4954471;29;20280;-84
2021/01/18 15:20:12;;;;;;;22.57;17.97;;;5.00;99.90;;;;;;4971435;29;20616;-84
2021/01/18 15:22:39;;;;;;;17.53;14.23;;;5.00;99.90;;;;;;4954597;29;20206;-84
2021/01/18 15:25:07;;;;;;;20.85;14.32;;;4.90;99.90;;;;;;4953597;29;20270;-83
2021/01/18 15:27:34;;;;;;;20.10;14.27;;;4.90;99.90;;;;;;4968530;29;20230;-84
2021/01/18 15:30:06;;;;;;;19.13;15.30;;;4.90;99.90;;;;;;4965226;28;20237;-84
2021/01/18 15:32:34;;;;;;;20.97;14.50;;;4.90;99.90;;;;;;4958810;29;20249;-84
2021/01/18 15:35:02;;;;;;;16.27;12.57;;;4.90;99.90;;;;;;4959783;29;20845;-86
2021/01/18 15:37:29;;;;;;;16.87;13.40;;;4.80;99.90;;;;;;4959052;29;20267;-84
2021/01/18 15:39:56;;;;;;;16.13;14.00;;;4.80;99.90;;;;;;4945571;29;20278;-84
2021/01/18 15:42:23;;;;;;;14.90;12.97;;;4.70;99.90;;;;;;4963132;29;20256;-85
2021/01/18 15:44:50;;;;;;;18.27;14.43;;;4.70;99.90;;;;;;4962179;29;20218;-79
2021/01/18 15:47:17;;;;;;;19.00;13.70;;;4.60;99.90;;;;;;4943696;29;20237;-79
2021/01/18 15:49:44;;;;;;;15.90;13.27;;;4.60;99.90;;;;;;4958169;28;20195;-76
2021/01/18 15:52:12;;;;;;;18.85;14.02;;;4.70;99.90;;;;;;4954927;29;20451;-76
2021/01/18 15:54:42;;;;;;;16.20;13.60;;;4.70;99.90;;;;;;4938434;29;20232;-75
2021/01/18 15:57:09;;;;;;;26.40;13.37;;;4.70;99.90;;;;;;4954087;29;20233;-75
2021/01/18 15:59:36;;;;;;;15.55;13.98;;;4.70;99.90;;;;;;4961380;28;20233;-82
2021/01/18 16:02:02;;;;;;;20.63;15.23;;;4.70;99.90;;;;;;4945742;29;20222;-82
2021/01/18 16:04:30;;;;;;;20.93;16.67;;;4.70;99.90;;;;;;4960641;29;20649;-82
2021/01/18 16:06:57;;;;;;;20.77;16.17;;;4.70;99.90;;;;;;4957766;29;20298;-84
2021/01/18 16:09:25;;;;;;;28.47;16.97;;;4.70;99.90;;;;;;4958545;29;20332;-82
2021/01/18 16:11:58;;;;;;;22.73;17.67;;;4.70;99.90;;;;;;4947372;29;20579;-82
2021/01/18 16:14:25;;;;;;;22.05;17.05;;;4.60;99.90;;;;;;4958863;28;20209;-82
2021/01/18 16:16:53;;;;;;;23.23;18.80;;;4.60;99.90;;;;;;4959829;28;20756;-84
2021/01/18 16:19:38;;;;;;;22.38;17.45;;;4.70;99.90;;;;;;4959088;29;20211;-84
2021/01/18 16:22:35;;;;;;;22.52;18.02;;;4.80;99.90;;;;;;4959295;29;20800;-83
2021/01/18 16:25:42;;;;;;;22.77;18.27;;;4.70;99.90;;;;;;4958347;29;20213;-82
2021/01/18 16:28:27;;;;;;;23.80;19.20;;;4.60;99.90;;;;;;4960953;28;20241;-82
2021/01/18 16:34:26;;;;;;;31.07;18.97;;;4.70;99.90;;;;;;4936871;29;20709;-83
2021/01/18 16:40:47;;;;;;;28.73;21.35;;;4.70;99.90;;;;;;4936860;28;20207;-82
2021/01/18 16:43:22;;;;;;;25.07;20.73;;;4.80;99.90;;;;;;4957941;28;20219;-83
2021/01/18 19:01:27;;;;;;;17.17;15.10;;;5.10;99.90;;;;;;4945576;29;20251;-79
2021/01/18 19:03:54;;;;;;;20.50;15.03;;;5.10;99.90;;;;;;4945408;29;20246;-80
2021/01/18 19:06:21;;;;;;;20.23;14.80;;;5.20;99.90;;;;;;4952062;29;20262;-79
2021/01/18 19:08:48;;;;;;;21.10;15.10;;;5.30;99.90;;;;;;4936048;29;20230;-80
2021/01/18 19:11:20;;;;;;;18.87;15.53;;;5.30;99.90;;;;;;4954299;29;20215;-80
2021/01/18 19:13:48;;;;;;;21.80;16.70;;;5.30;99.90;;;;;;4952960;29;20298;-82
2021/01/18 19:16:15;;;;;;;25.15;15.07;;;5.30;99.90;;;;;;4970539;29;20223;-80
2021/01/18 19:18:43;;;;;;;18.67;15.20;;;5.30;99.90;;;;;;4973470;29;20682;-83
2021/01/18 19:21:11;;;;;;;21.03;15.87;;;5.20;99.90;;;;;;4970150;28;20223;-83
2021/01/18 19:23:38;;;;;;;22.70;16.20;;;5.20;99.90;;;;;;4970785;28;20218;-82
2021/01/18 19:26:06;;;;;;;19.60;15.20;;;5.20;99.90;;;;;;4952012;29;20238;-83
2021/01/18 19:28:34;;;;;;;22.40;14.60;;;5.10;99.90;;;;;;4966613;28;20267;-84
2021/01/18 19:31:01;;;;;;;16.60;14.63;;;5.10;99.90;;;;;;4970421;28;20219;-83
2021/01/18 19:33:29;;;;;;;23.13;15.90;;;5.10;99.90;;;;;;4971499;28;20222;-83
2021/01/18 19:35:58;;;;;;;17.73;15.60;;;5.10;99.90;;;;;;4970147;28;20223;-83
2021/01/18 19:38:26;;;;;;;16.77;15.05;;;5.10;99.90;;;;;;4951833;29;20219;-82
2021/01/18 19:40:53;;;;;;;22.58;16.95;;;5.00;99.90;;;;;;4972235;28;20218;-83
2021/01/18 19:43:20;;;;;;;19.60;17.35;;;4.90;99.90;;;;;;4970718;28;20221;-83
2021/01/18 19:45:49;;;;;;;23.77;16.53;;;4.90;99.90;;;;;;4970104;29;20226;-81
2021/01/18 19:48:17;;;;;;;25.83;16.03;;;4.90;99.90;;;;;;4970716;28;20741;-82
2021/01/18 19:50:44;;;;;;;21.70;15.63;;;5.00;99.90;;;;;;4970677;29;20234;-83
2021/01/18 19:53:12;;;;;;;18.45;15.65;;;5.00;99.90;;;;;;4971619;28;20244;-82
2021/01/18 19:59:04;;;;;;;21.87;16.47;;;5.10;99.90;;;;;;4955376;28;20207;-83
2021/01/18 20:01:35;;;;;;;19.27;14.93;;;5.10;99.90;;;;;;4945658;29;20215;-82
2021/01/18 20:04:10;;;;;;;22.63;15.63;;;5.00;99.90;;;;;;4944933;29;20207;-84
2021/01/18 20:06:37;;;;;;;18.40;14.73;;;5.10;99.90;;;;;;4975535;23;20341;-84
2021/01/18 20:09:09;;;;;;;19.30;16.93;;;5.10;99.90;;;;;;4963077;29;20230;-84
2021/01/18 20:11:51;;;;;;;23.13;15.23;;;4.90;99.90;;;;;;4965187;28;20229;-82
2021/01/18 20:14:18;;;;;;;35.73;22.03;;;5.00;99.90;;;;;;4963510;29;20234;-82
2021/01/18 20:16:50;;;;;;;17.57;15.57;;;5.00;99.90;;;;;;4950746;28;20231;-82
2021/01/18 20:19:32;;;;;;;60.93;35.27;;;4.90;99.90;;;;;;4944045;29;20217;-84
2021/01/18 20:21:59;;;;;;;28.93;17.33;;;5.10;99.90;;;;;;4945071;29;20218;-82
2021/01/18 20:24:27;;;;;;;24.33;15.40;;;5.10;99.90;;;;;;4944041;29;20695;-81
2021/01/18 20:26:56;;;;;;;18.48;14.95;;;5.10;99.90;;;;;;4944039;29;20298;-81
2021/01/18 20:29:33;;;;;;;18.53;13.60;;;5.10;99.90;;;;;;4947867;29;20266;-82
2021/01/18 20:31:59;;;;;;;17.37;13.63;;;5.10;99.90;;;;;;4945239;29;20243;-83
2021/01/18 20:34:27;;;;;;;17.73;13.10;;;5.00;99.90;;;;;;4943528;29;20226;-83
2021/01/18 20:36:54;;;;;;;16.90;13.98;;;5.00;99.90;;;;;;4942517;29;20235;-84
2021/01/18 20:39:27;;;;;;;17.17;14.30;;;5.00;99.90;;;;;;4942605;29;20247;-82
2021/01/18 20:41:54;;;;;;;17.93;13.47;;;4.80;99.90;;;;;;4944778;29;20211;-83
2021/01/18 20:44:22;;;;;;;17.00;13.50;;;5.00;99.90;;;;;;4944627;29;20234;-83
2021/01/18 20:46:56;;;;;;;17.55;15.40;;;5.00;99.90;;;;;;4944530;29;20231;-83
2021/01/18 20:49:26;;;;;;;21.53;13.43;;;5.00;99.90;;;;;;4940893;29;20242;-84
2021/01/18 20:51:53;;;;;;;16.83;15.07;;;5.10;99.90;;;;;;4943532;29;20223;-83
2021/01/18 20:54:23;;;;;;;14.93;13.43;;;5.00;99.90;;;;;;4945343;29;20227;-83
2021/01/18 20:56:51;;;;;;;23.10;15.80;;;5.10;99.90;;;;;;4951988;28;20255;-84
2021/01/18 20:59:18;;;;;;;19.47;16.43;;;5.00;99.90;;;;;;4958772;28;20217;-84
2021/01/18 21:01:46;;;;;;;17.35;14.13;;;4.90;99.90;;;;;;4956321;28;20219;-84
2021/01/18 21:04:13;;;;;;;20.88;16.50;;;4.90;99.90;;;;;;4954314;29;20234;-82
2021/01/18 21:06:40;;;;;;;20.37;16.93;;;4.90;99.90;;;;;;4931256;29;20223;-82
2021/01/18 21:09:07;;;;;;;24.97;16.07;;;5.00;99.90;;;;;;4942194;29;20238;-83
2021/01/18 21:11:37;;;;;;;14.97;13.47;;;5.00;99.90;;;;;;4945911;29;20223;-83
2021/01/18 21:14:05;;;;;;;18.17;14.70;;;5.00;99.90;;;;;;4944876;29;20223;-83
2021/01/18 21:16:34;;;;;;;18.40;12.57;;;5.00;99.90;;;;;;4944479;29;20223;-82
2021/01/18 21:19:05;;;;;;;15.33;12.77;;;5.00;99.90;;;;;;4944481;29;20309;-83
2021/01/18 21:21:33;;;;;;;14.60;11.57;;;5.00;99.90;;;;;;4944313;29;20211;-83
2021/01/18 21:24:02;;;;;;;15.50;11.23;;;5.00;99.90;;;;;;4926495;29;20222;-83
2021/01/18 21:26:36;;;;;;;13.13;10.88;;;5.00;99.90;;;;;;4944104;29;20251;-84
2021/01/18 21:29:05;;;;;;;14.77;11.02;;;5.10;99.90;;;;;;4925368;29;20263;-83
2021/01/18 21:31:36;;;;;;;12.23;10.97;;;5.10;99.90;;;;;;4942149;29;20598;-83
2021/01/18 21:34:03;;;;;;;17.00;13.13;;;5.00;99.90;;;;;;4944005;29;20351;-83
2021/01/18 21:36:30;;;;;;;14.30;12.38;;;5.00;99.90;;;;;;4942530;29;20224;-82
2021/01/18 21:38:57;;;;;;;15.17;13.60;;;5.00;99.90;;;;;;4942342;29;20273;-82
2021/01/18 21:41:27;;;;;;;18.23;13.40;;;5.00;99.90;;;;;;4942421;29;20223;-82
2021/01/18 21:43:54;;;;;;;17.40;14.33;;;5.00;99.90;;;;;;4943583;29;20255;-83
2021/01/18 21:46:23;;;;;;;16.80;14.23;;;5.00;99.90;;;;;;4943568;29;20297;-82
2021/01/18 21:48:53;;;;;;;21.30;14.40;;;5.00;99.90;;;;;;4941690;29;20223;-83
2021/01/18 21:51:28;;;;;;;20.53;16.33;;;5.00;99.90;;;;;;4942251;29;20215;-83
2021/01/18 21:53:55;;;;;;;16.37;14.60;;;5.00;99.90;;;;;;4942140;29;20257;-83
2021/01/18 21:56:24;;;;;;;18.73;14.10;;;5.00;99.90;;;;;;4942719;29;20338;-82